EZY24NP EGKK-LFRS
Flight info
| Callsign | EZY24NP |
|---|---|
| Flight time | 1h 0m |
| Altitude | 29000 |
| Route | IMVUR N63 SAM M195 MARUK N621 LELNA DCT DOMOK UT260 UPALO UN862 GODAN |
| Aircraft | A320/M-SDE3FGHIRWY/LB1 |
Departure
| Time | 2026-05-04 18:27 |
|---|---|
| Airport | London Gatwick Airport (EGKK) |
Arrival
| Time | 2026-05-04 19:28 |
|---|---|
| Airport | Nantes Atlantique Airport (LFRS) |
| Time | Latitude | Longitude | Altitude | Speed | Heading |
|---|---|---|---|---|---|
| 2026-05-04 17:42 | 51.15584 | -0.17683 | 200 ft | 0 kts | 348° |
| 2026-05-04 18:10 | 51.15571 | -0.17679 | 210 ft | 4 kts | 348° |
| 2026-05-04 18:11 | 51.15545 | -0.17669 | 203 ft | 4 kts | 348° |
| 2026-05-04 18:11 | 51.15524 | -0.17658 | 210 ft | 4 kts | 296° |
| 2026-05-04 18:11 | 51.15521 | -0.17619 | 209 ft | 4 kts | 258° |
| 2026-05-04 18:11 | 51.15526 | -0.17591 | 201 ft | 0 kts | 257° |
| 2026-05-04 18:12 | 51.15526 | -0.17590 | 201 ft | 0 kts | 257° |
| 2026-05-04 18:15 | 51.15524 | -0.17602 | 199 ft | 7 kts | 258° |
| 2026-05-04 18:15 | 51.15504 | -0.17756 | 205 ft | 18 kts | 258° |
| 2026-05-04 18:16 | 51.15479 | -0.17936 | 203 ft | 16 kts | 257° |
| 2026-05-04 18:16 | 51.15456 | -0.18096 | 208 ft | 14 kts | 258° |
| 2026-05-04 18:16 | 51.15438 | -0.18235 | 200 ft | 12 kts | 255° |
| 2026-05-04 18:17 | 51.15292 | -0.18240 | 203 ft | 16 kts | 163° |
| 2026-05-04 18:17 | 51.15181 | -0.18251 | 205 ft | 16 kts | 248° |
| 2026-05-04 18:17 | 51.15143 | -0.18598 | 206 ft | 18 kts | 259° |
| 2026-05-04 18:18 | 51.15116 | -0.18813 | 204 ft | 22 kts | 259° |
| 2026-05-04 18:18 | 51.15084 | -0.19064 | 207 ft | 23 kts | 258° |
| 2026-05-04 18:18 | 51.15047 | -0.19254 | 203 ft | 14 kts | 226° |
| 2026-05-04 18:18 | 51.14972 | -0.19281 | 204 ft | 10 kts | 219° |
| 2026-05-04 18:19 | 51.14921 | -0.19573 | 205 ft | 14 kts | 257° |
| 2026-05-04 18:19 | 51.14902 | -0.19711 | 203 ft | 13 kts | 257° |
| 2026-05-04 18:19 | 51.14875 | -0.19907 | 205 ft | 23 kts | 257° |
| 2026-05-04 18:20 | 51.14836 | -0.20185 | 203 ft | 27 kts | 257° |
| 2026-05-04 18:20 | 51.14795 | -0.20483 | 207 ft | 28 kts | 257° |
| 2026-05-04 18:20 | 51.14758 | -0.20713 | 206 ft | 16 kts | 223° |
| 2026-05-04 18:20 | 51.14701 | -0.20714 | 201 ft | 0 kts | 167° |
| 2026-05-04 18:25 | 51.14699 | -0.20713 | 200 ft | 3 kts | 167° |
| 2026-05-04 18:26 | 51.14593 | -0.20668 | 214 ft | 21 kts | 149° |
| 2026-05-04 18:26 | 51.14602 | -0.20571 | 204 ft | 0 kts | 78° |
| 2026-05-04 18:26 | 51.14603 | -0.20563 | 203 ft | 5 kts | 77° |
| 2026-05-04 18:26 | 51.14662 | -0.20142 | 205 ft | 76 kts | 77° |
| 2026-05-04 18:27 | 51.14819 | -0.18994 | 205 ft | 133 kts | 78° |
| 2026-05-04 18:27 | 51.15050 | -0.17331 | 360 ft | 166 kts | 77° |
| 2026-05-04 18:27 | 51.15280 | -0.15510 | 956 ft | 173 kts | 78° |
| 2026-05-04 18:27 | 51.15524 | -0.13637 | 1671 ft | 175 kts | 76° |
| 2026-05-04 18:28 | 51.15805 | -0.11635 | 1994 ft | 195 kts | 76° |
| 2026-05-04 18:28 | 51.16123 | -0.09395 | 2321 ft | 217 kts | 76° |
| 2026-05-04 18:28 | 51.16494 | -0.07008 | 2873 ft | 224 kts | 68° |
| 2026-05-04 18:28 | 51.17466 | -0.05158 | 3042 ft | 223 kts | 28° |
| 2026-05-04 18:29 | 51.18894 | -0.04725 | 3020 ft | 223 kts | 356° |
| 2026-05-04 18:29 | 51.20431 | -0.05145 | 3100 ft | 228 kts | 346° |
| 2026-05-04 18:29 | 51.21814 | -0.06384 | 3918 ft | 232 kts | 314° |
| 2026-05-04 18:29 | 51.22631 | -0.08631 | 4690 ft | 244 kts | 285° |
| 2026-05-04 18:30 | 51.22275 | -0.14341 | 5932 ft | 271 kts | 259° |
| 2026-05-04 18:30 | 51.21918 | -0.17306 | 6801 ft | 274 kts | 259° |
| 2026-05-04 18:30 | 51.21564 | -0.20313 | 7651 ft | 277 kts | 259° |
| 2026-05-04 18:31 | 51.21208 | -0.23351 | 8507 ft | 280 kts | 259° |
| 2026-05-04 18:31 | 51.20849 | -0.26424 | 9362 ft | 283 kts | 259° |
| 2026-05-04 18:31 | 51.20489 | -0.29521 | 10180 ft | 286 kts | 258° |
| 2026-05-04 18:31 | 51.20153 | -0.32400 | 10854 ft | 290 kts | 258° |
| 2026-05-04 18:32 | 51.19779 | -0.35585 | 11590 ft | 294 kts | 258° |
| 2026-05-04 18:32 | 51.19376 | -0.38803 | 12340 ft | 298 kts | 258° |
| 2026-05-04 18:32 | 51.18961 | -0.41983 | 13041 ft | 302 kts | 258° |
| 2026-05-04 18:32 | 51.18523 | -0.45279 | 13765 ft | 306 kts | 258° |
| 2026-05-04 18:33 | 51.18077 | -0.48635 | 14408 ft | 310 kts | 258° |
| 2026-05-04 18:33 | 51.17625 | -0.52025 | 15081 ft | 313 kts | 256° |
| 2026-05-04 18:33 | 51.16931 | -0.55342 | 15538 ft | 324 kts | 247° |
| 2026-05-04 18:33 | 51.16032 | -0.58767 | 15671 ft | 345 kts | 246° |
| 2026-05-04 18:34 | 51.15071 | -0.62368 | 15954 ft | 358 kts | 246° |
| 2026-05-04 18:34 | 51.14078 | -0.66056 | 16507 ft | 364 kts | 246° |
| 2026-05-04 18:34 | 51.13084 | -0.69732 | 17114 ft | 367 kts | 246° |
| 2026-05-04 18:34 | 51.12073 | -0.73485 | 17742 ft | 370 kts | 246° |
| 2026-05-04 18:35 | 51.11056 | -0.77270 | 18340 ft | 374 kts | 246° |
| 2026-05-04 18:35 | 51.10024 | -0.81108 | 18879 ft | 377 kts | 246° |
| 2026-05-04 18:35 | 51.08990 | -0.84958 | 19422 ft | 379 kts | 246° |
| 2026-05-04 18:35 | 51.07949 | -0.88827 | 19962 ft | 382 kts | 245° |
| 2026-05-04 18:36 | 51.06899 | -0.92720 | 20499 ft | 384 kts | 245° |
| 2026-05-04 18:36 | 51.05853 | -0.96592 | 21020 ft | 386 kts | 245° |
| 2026-05-04 18:36 | 51.04789 | -1.00523 | 21532 ft | 389 kts | 245° |
| 2026-05-04 18:36 | 51.03714 | -1.04487 | 22047 ft | 391 kts | 245° |
| 2026-05-04 18:37 | 51.02631 | -1.08480 | 22547 ft | 394 kts | 245° |
| 2026-05-04 18:37 | 51.01543 | -1.12494 | 23067 ft | 396 kts | 245° |
| 2026-05-04 18:37 | 51.00446 | -1.16529 | 23556 ft | 399 kts | 245° |
| 2026-05-04 18:37 | 50.99338 | -1.20586 | 23973 ft | 401 kts | 244° |
| 2026-05-04 18:38 | 50.98223 | -1.24655 | 24396 ft | 402 kts | 244° |
| 2026-05-04 18:38 | 50.97091 | -1.28723 | 24808 ft | 403 kts | 241° |
| 2026-05-04 18:38 | 50.95643 | -1.32520 | 25211 ft | 402 kts | 231° |
| 2026-05-04 18:38 | 50.93818 | -1.35808 | 25614 ft | 401 kts | 221° |
| 2026-05-04 18:39 | 50.91647 | -1.38562 | 26000 ft | 400 kts | 212° |
| 2026-05-04 18:39 | 50.89318 | -1.40975 | 26390 ft | 401 kts | 211° |
| 2026-05-04 18:39 | 50.86967 | -1.43413 | 26789 ft | 403 kts | 211° |
| 2026-05-04 18:39 | 50.84610 | -1.45864 | 27182 ft | 404 kts | 211° |
| 2026-05-04 18:40 | 50.82255 | -1.48314 | 27564 ft | 406 kts | 211° |
| 2026-05-04 18:40 | 50.79912 | -1.50748 | 27926 ft | 407 kts | 211° |
| 2026-05-04 18:40 | 50.77537 | -1.53211 | 28302 ft | 409 kts | 211° |
| 2026-05-04 18:40 | 50.75157 | -1.55672 | 28661 ft | 411 kts | 211° |
| 2026-05-04 18:41 | 50.72751 | -1.58151 | 28957 ft | 412 kts | 211° |
| 2026-05-04 18:41 | 50.70375 | -1.60601 | 29003 ft | 400 kts | 211° |
| 2026-05-04 18:41 | 50.68075 | -1.62974 | 29003 ft | 390 kts | 211° |
| 2026-05-04 18:42 | 50.63552 | -1.67637 | 29009 ft | 387 kts | 210° |
| 2026-05-04 18:42 | 50.59043 | -1.72267 | 29003 ft | 386 kts | 210° |
| 2026-05-04 18:43 | 50.54569 | -1.76845 | 29003 ft | 386 kts | 210° |
| 2026-05-04 18:43 | 50.50054 | -1.81463 | 29008 ft | 386 kts | 210° |
| 2026-05-04 18:44 | 50.45538 | -1.86055 | 29006 ft | 386 kts | 210° |
| 2026-05-04 18:44 | 50.41050 | -1.90615 | 29006 ft | 386 kts | 210° |
| 2026-05-04 18:45 | 50.36546 | -1.95205 | 29013 ft | 386 kts | 210° |
| 2026-05-04 18:45 | 50.32030 | -1.99772 | 29006 ft | 386 kts | 209° |
| 2026-05-04 18:46 | 50.27535 | -2.04296 | 28992 ft | 385 kts | 208° |
| 2026-05-04 18:46 | 50.22619 | -2.07340 | 28996 ft | 378 kts | 188° |
| 2026-05-04 18:47 | 50.17445 | -2.08137 | 29000 ft | 377 kts | 183° |
| 2026-05-04 18:47 | 50.12239 | -2.08825 | 28999 ft | 377 kts | 183° |
| 2026-05-04 18:48 | 50.07007 | -2.09530 | 28999 ft | 377 kts | 183° |
| 2026-05-04 18:48 | 50.01808 | -2.10204 | 29004 ft | 376 kts | 183° |
| 2026-05-04 18:49 | 49.96567 | -2.10780 | 29009 ft | 376 kts | 180° |
| 2026-05-04 18:49 | 49.91367 | -2.10796 | 29015 ft | 375 kts | 178° |
| 2026-05-04 18:50 | 49.86140 | -2.10626 | 29020 ft | 375 kts | 178° |
| 2026-05-04 18:50 | 49.80917 | -2.10528 | 29023 ft | 375 kts | 178° |
| 2026-05-04 18:51 | 49.75728 | -2.10495 | 29028 ft | 375 kts | 179° |
| 2026-05-04 18:51 | 49.70566 | -2.09684 | 28996 ft | 373 kts | 164° |
| 2026-05-04 18:52 | 49.65562 | -2.07470 | 28996 ft | 372 kts | 164° |
| 2026-05-04 18:52 | 49.60606 | -2.05298 | 28989 ft | 372 kts | 164° |
| 2026-05-04 18:53 | 49.55618 | -2.03105 | 28988 ft | 372 kts | 164° |
| 2026-05-04 18:53 | 49.50635 | -2.00915 | 28990 ft | 372 kts | 165° |
| 2026-05-04 18:54 | 49.45710 | -1.98778 | 29001 ft | 371 kts | 165° |
| 2026-05-04 18:54 | 49.40739 | -1.96615 | 29001 ft | 370 kts | 165° |
| 2026-05-04 18:55 | 49.35768 | -1.94447 | 29008 ft | 369 kts | 165° |
| 2026-05-04 18:55 | 49.28384 | -1.91255 | 29012 ft | 367 kts | 165° |
| 2026-05-04 18:56 | 49.23457 | -1.89121 | 29007 ft | 366 kts | 165° |
| 2026-05-04 18:56 | 49.18553 | -1.87001 | 29009 ft | 366 kts | 165° |
| 2026-05-04 18:57 | 49.13673 | -1.84900 | 29004 ft | 365 kts | 165° |
| 2026-05-04 18:57 | 49.08774 | -1.82797 | 29003 ft | 365 kts | 165° |
| 2026-05-04 18:58 | 49.03879 | -1.80698 | 29001 ft | 364 kts | 165° |
| 2026-05-04 18:58 | 48.99039 | -1.78623 | 28996 ft | 363 kts | 165° |
| 2026-05-04 18:59 | 48.94158 | -1.76537 | 28986 ft | 363 kts | 165° |
| 2026-05-04 18:59 | 48.89244 | -1.75167 | 28991 ft | 361 kts | 179° |
| 2026-05-04 19:00 | 48.84216 | -1.75107 | 28985 ft | 361 kts | 179° |
| 2026-05-04 19:00 | 48.80036 | -1.75053 | 28981 ft | 360 kts | 179° |
| 2026-05-04 19:01 | 48.75025 | -1.74991 | 28978 ft | 360 kts | 179° |
| 2026-05-04 19:01 | 48.70005 | -1.74934 | 28968 ft | 360 kts | 179° |
| 2026-05-04 19:02 | 48.65063 | -1.74875 | 28969 ft | 360 kts | 179° |
| 2026-05-04 19:02 | 48.60046 | -1.74812 | 28974 ft | 360 kts | 179° |
| 2026-05-04 19:03 | 48.55063 | -1.74751 | 28971 ft | 360 kts | 179° |
| 2026-05-04 19:03 | 48.50052 | -1.74696 | 28970 ft | 360 kts | 179° |
| 2026-05-04 19:04 | 48.45069 | -1.74637 | 28972 ft | 360 kts | 179° |
| 2026-05-04 19:04 | 48.39947 | -1.74569 | 28976 ft | 380 kts | 179° |
| 2026-05-04 19:05 | 48.34765 | -1.74515 | 28670 ft | 365 kts | 179° |
| 2026-05-04 19:05 | 48.32269 | -1.74485 | 28501 ft | 352 kts | 178° |
| 2026-05-04 19:05 | 48.29873 | -1.74451 | 28105 ft | 345 kts | 178° |
| 2026-05-04 19:06 | 48.27475 | -1.74419 | 27600 ft | 343 kts | 178° |
| 2026-05-04 19:06 | 48.25094 | -1.74388 | 27065 ft | 341 kts | 179° |
| 2026-05-04 19:06 | 48.22719 | -1.74361 | 26527 ft | 340 kts | 179° |
| 2026-05-04 19:06 | 48.20356 | -1.74331 | 26001 ft | 339 kts | 179° |
| 2026-05-04 19:07 | 48.18018 | -1.74298 | 25489 ft | 339 kts | 179° |
| 2026-05-04 19:07 | 48.15662 | -1.74267 | 24977 ft | 338 kts | 179° |
| 2026-05-04 19:07 | 48.13297 | -1.74239 | 24486 ft | 338 kts | 179° |
| 2026-05-04 19:07 | 48.10941 | -1.74213 | 23992 ft | 338 kts | 179° |
| 2026-05-04 19:08 | 48.08591 | -1.74193 | 23497 ft | 338 kts | 180° |
| 2026-05-04 19:08 | 48.06253 | -1.74605 | 22943 ft | 338 kts | 192° |
| 2026-05-04 19:08 | 48.04010 | -1.75667 | 22443 ft | 338 kts | 198° |
| 2026-05-04 19:08 | 48.01793 | -1.76824 | 21969 ft | 336 kts | 197° |
| 2026-05-04 19:09 | 47.99586 | -1.77964 | 21511 ft | 335 kts | 197° |
| 2026-05-04 19:09 | 47.97412 | -1.79078 | 21072 ft | 333 kts | 197° |
| 2026-05-04 19:09 | 47.95186 | -1.80209 | 20336 ft | 340 kts | 197° |
| 2026-05-04 19:09 | 47.92940 | -1.81349 | 19909 ft | 338 kts | 197° |
| 2026-05-04 19:10 | 47.90771 | -1.82455 | 19475 ft | 337 kts | 197° |
| 2026-05-04 19:10 | 47.88499 | -1.83620 | 19021 ft | 336 kts | 197° |
| 2026-05-04 19:10 | 47.86280 | -1.84758 | 18582 ft | 335 kts | 197° |
| 2026-05-04 19:10 | 47.84102 | -1.85872 | 18142 ft | 335 kts | 197° |
| 2026-05-04 19:11 | 47.81901 | -1.86999 | 17675 ft | 333 kts | 197° |
| 2026-05-04 19:11 | 47.79714 | -1.88121 | 17245 ft | 331 kts | 197° |
| 2026-05-04 19:11 | 47.77548 | -1.89227 | 16823 ft | 329 kts | 197° |
| 2026-05-04 19:11 | 47.75390 | -1.90325 | 16400 ft | 327 kts | 197° |
| 2026-05-04 19:12 | 47.73239 | -1.91415 | 16006 ft | 326 kts | 197° |
| 2026-05-04 19:12 | 47.68980 | -1.93569 | 15191 ft | 324 kts | 197° |
| 2026-05-04 19:12 | 47.66837 | -1.94607 | 14781 ft | 322 kts | 192° |
| 2026-05-04 19:13 | 47.64621 | -1.94992 | 14383 ft | 320 kts | 177° |
| 2026-05-04 19:13 | 47.62434 | -1.94511 | 13989 ft | 318 kts | 162° |
| 2026-05-04 19:13 | 47.60403 | -1.93246 | 13576 ft | 317 kts | 153° |
| 2026-05-04 19:13 | 47.58434 | -1.91795 | 13159 ft | 315 kts | 153° |
| 2026-05-04 19:14 | 47.56472 | -1.90361 | 12766 ft | 313 kts | 153° |
| 2026-05-04 19:14 | 47.54519 | -1.88943 | 12373 ft | 312 kts | 153° |
| 2026-05-04 19:14 | 47.52565 | -1.87531 | 11968 ft | 310 kts | 153° |
| 2026-05-04 19:14 | 47.50666 | -1.86163 | 11755 ft | 303 kts | 153° |
| 2026-05-04 19:15 | 47.48804 | -1.84823 | 11566 ft | 295 kts | 153° |
| 2026-05-04 19:15 | 47.46967 | -1.83499 | 11230 ft | 292 kts | 153° |
| 2026-05-04 19:15 | 47.45150 | -1.82188 | 10612 ft | 289 kts | 153° |
| 2026-05-04 19:15 | 47.43307 | -1.81041 | 10152 ft | 284 kts | 163° |
| 2026-05-04 19:16 | 47.41385 | -1.80552 | 9970 ft | 277 kts | 175° |
| 2026-05-04 19:16 | 47.39463 | -1.80413 | 9660 ft | 275 kts | 176° |
| 2026-05-04 19:16 | 47.37581 | -1.80286 | 9278 ft | 275 kts | 176° |
| 2026-05-04 19:16 | 47.35664 | -1.80162 | 8907 ft | 274 kts | 176° |
| 2026-05-04 19:17 | 47.33763 | -1.80039 | 8620 ft | 273 kts | 176° |
| 2026-05-04 19:17 | 47.31872 | -1.79917 | 8339 ft | 272 kts | 176° |
| 2026-05-04 19:17 | 47.29982 | -1.79797 | 8066 ft | 271 kts | 176° |
| 2026-05-04 19:17 | 47.28099 | -1.79676 | 7789 ft | 270 kts | 176° |
| 2026-05-04 19:18 | 47.26250 | -1.79556 | 7516 ft | 269 kts | 177° |
| 2026-05-04 19:18 | 47.24385 | -1.79436 | 7243 ft | 268 kts | 177° |
| 2026-05-04 19:18 | 47.22517 | -1.79316 | 6969 ft | 267 kts | 177° |
| 2026-05-04 19:18 | 47.20693 | -1.79199 | 6822 ft | 256 kts | 177° |
| 2026-05-04 19:19 | 47.18950 | -1.79090 | 6697 ft | 246 kts | 177° |
| 2026-05-04 19:19 | 47.17272 | -1.78987 | 6558 ft | 236 kts | 177° |
| 2026-05-04 19:19 | 47.15664 | -1.78885 | 6303 ft | 233 kts | 177° |
| 2026-05-04 19:19 | 47.14043 | -1.78779 | 6035 ft | 232 kts | 177° |
| 2026-05-04 19:20 | 47.12434 | -1.78673 | 5757 ft | 231 kts | 177° |
| 2026-05-04 19:20 | 47.10828 | -1.78571 | 5483 ft | 231 kts | 177° |
| 2026-05-04 19:20 | 47.09218 | -1.78467 | 5213 ft | 230 kts | 177° |
| 2026-05-04 19:20 | 47.07636 | -1.78365 | 4949 ft | 230 kts | 177° |
| 2026-05-04 19:21 | 47.06041 | -1.78265 | 4679 ft | 229 kts | 177° |
| 2026-05-04 19:21 | 47.04432 | -1.78165 | 4331 ft | 232 kts | 177° |
| 2026-05-04 19:21 | 47.02823 | -1.78063 | 4055 ft | 231 kts | 178° |
| 2026-05-04 19:21 | 47.01241 | -1.77962 | 3895 ft | 225 kts | 177° |
| 2026-05-04 19:22 | 46.99694 | -1.77861 | 3734 ft | 219 kts | 177° |
| 2026-05-04 19:22 | 46.98188 | -1.77714 | 3515 ft | 217 kts | 168° |
| 2026-05-04 19:22 | 46.96899 | -1.76582 | 3073 ft | 222 kts | 122° |
| 2026-05-04 19:22 | 46.96533 | -1.74554 | 2985 ft | 200 kts | 76° |
| 2026-05-04 19:23 | 46.97200 | -1.72997 | 2997 ft | 174 kts | 26° |
| 2026-05-04 19:23 | 46.98325 | -1.72790 | 3017 ft | 163 kts | 350° |
| 2026-05-04 19:23 | 46.99437 | -1.72798 | 2984 ft | 161 kts | 19° |
| 2026-05-04 19:23 | 47.00472 | -1.72157 | 2992 ft | 162 kts | 21° |
| 2026-05-04 19:24 | 47.01497 | -1.71489 | 2875 ft | 160 kts | 23° |
| 2026-05-04 19:24 | 47.02474 | -1.70791 | 2692 ft | 150 kts | 24° |
| 2026-05-04 19:24 | 47.03374 | -1.70126 | 2511 ft | 142 kts | 24° |
| 2026-05-04 19:24 | 47.04243 | -1.69476 | 2322 ft | 141 kts | 24° |
| 2026-05-04 19:25 | 47.05111 | -1.68822 | 2132 ft | 140 kts | 24° |
| 2026-05-04 19:25 | 47.05978 | -1.68166 | 1941 ft | 139 kts | 24° |
| 2026-05-04 19:25 | 47.06838 | -1.67516 | 1758 ft | 140 kts | 23° |
| 2026-05-04 19:25 | 47.07699 | -1.66863 | 1561 ft | 139 kts | 23° |
| 2026-05-04 19:26 | 47.08560 | -1.66210 | 1383 ft | 139 kts | 23° |
| 2026-05-04 19:26 | 47.09415 | -1.65561 | 1182 ft | 140 kts | 24° |
| 2026-05-04 19:26 | 47.10280 | -1.64904 | 1016 ft | 139 kts | 24° |
| 2026-05-04 19:26 | 47.11141 | -1.64243 | 846 ft | 139 kts | 24° |
| 2026-05-04 19:27 | 47.12008 | -1.63580 | 628 ft | 141 kts | 24° |
| 2026-05-04 19:27 | 47.12878 | -1.62916 | 424 ft | 142 kts | 24° |
| 2026-05-04 19:27 | 47.13747 | -1.62259 | 238 ft | 142 kts | 24° |
| 2026-05-04 19:27 | 47.14625 | -1.61599 | 100 ft | 136 kts | 25° |
| 2026-05-04 19:28 | 47.15353 | -1.61050 | 87 ft | 94 kts | 27° |
| 2026-05-04 19:28 | 47.15786 | -1.60723 | 84 ft | 40 kts | 28° |
| 2026-05-04 19:28 | 47.15815 | -1.60532 | 91 ft | 12 kts | 126° |
| 2026-05-04 19:28 | 47.15764 | -1.60463 | 89 ft | 9 kts | 144° |
| 2026-05-04 19:29 | 47.15718 | -1.60413 | 90 ft | 8 kts | 144° |
| 2026-05-04 19:29 | 47.15680 | -1.60370 | 91 ft | 6 kts | 138° |
| 2026-05-04 19:29 | 47.15650 | -1.60330 | 90 ft | 5 kts | 138° |
| 2026-05-04 19:29 | 47.15625 | -1.60298 | 91 ft | 4 kts | 138° |
| 2026-05-04 19:30 | 47.15613 | -1.60233 | 91 ft | 12 kts | 70° |
| 2026-05-04 19:30 | 47.15639 | -1.60176 | 91 ft | 3 kts | 58° |
| 2026-05-04 19:30 | 47.15643 | -1.60165 | 92 ft | 1 kts | 58° |
| 2026-05-04 19:30 | 47.15646 | -1.60160 | 90 ft | 0 kts | 58° |